Terminal Aerodrome Forecast
Issued by NWS

Home | Current Version | Previous Version | Text Only | Print | Product List | Glossary On
Versions: 1 2 3 4 5 6 7 8 9 10 11 12 13 14 15
000
FTUS41 KBOX 180535
TAFBAF
TAF
KBAF 180535Z 1806/1906 VRB04KT P6SM BKN050
     FM180900 00000KT P6SM VCSH OVC020
     FM181200 16004KT 5SM -RA BR OVC008
     FM181400 17006KT 3SM BR VCSH OVC015
     FM182000 18007KT 4SM -SHRA BR VCTS OVC008CB
     FM182300 18007KT 3SM SHRA BR OVC015
     FM190200 17006KT 4SM BR BKN015=

USA.gov is the U.S. government's official web portal to all federal, state and local government web resources and services.